Amo, IN

8:16 AM EDT on October 01, 2014 (GMT -0400)
WestBay | Change Station
CLOSE
Current Station
Personal Weather Station
Location: Plainfield, IN
Elevation: 778 ft
Nearby Weather Stations

Elev 778 ft 39.70 °N, 86.43 °W | Updated 14 minutes ago

Clear
Clear
51.4 °F
Feels Like 51.4 °F
N
1.7
Wind Variable Wind from East

Today
High -- | Low -- °F
--% Chance of Precip.
Yesterday
High -- | Low -- °F
Precip. -- in
7:42 AM 7:28 PM
Waxing Crescent, 47% visible
Pressure 29.99 in
Visibility 10.0 miles
Clouds Clear
Dew Point 51 °F
Humidity 98%
Rainfall 0.00 in
Snow Depth Not available.
UV 0 out of 12
Pollen 4.10 out of 12
Ozone Good
PM2.5 Good
Flu Activity Not available.
METAR KIND 011054Z 09006KT 10SM CLR 10/07 A2999 RMK AO2 SLP155 T01000072

More Conditions Fewer Conditions

Pressure 29.99 in
Visibility 10.0 miles
Clouds Clear
Dew Point 51 °F
Humidity 98%
Rainfall 0.00 in
Snow Depth Not available.
UV 0 out of 12
Pollen 4.10 out of 12
Ozone Good
PM2.5 Good
Flu Activity Not available.
METAR KIND 011054Z 09006KT 10SM CLR 10/07 A2999 RMK AO2 SLP155 T01000072

More Conditions Fewer Conditions

10-Day Weather Forecast

Almanac

Astronomy

Oct. 01, 2014 Rise Set
Actual Time 7:42 AM EDT 7:28 PM EDT
Civil Twilight 7:15 AM EDT 7:55 PM EDT
Nautical Twilight 6:44 AM EDT 8:26 PM EDT
Astronomical Twilight 6:12 AM EDT 8:58 PM EDT
Moon 2:42 PM EDT 12:00 AM EDT
Length of Visible Light 12h 39m
Length of Day
11h 46m
Tomorrow will be 2m 34s shorter.
Waxing Crescent, 47% of the Moon is Illuminated
Today
Waxing Crescent
Oct 1
First Quarter
Oct 8
Full
Oct 15
Last Quarter
Oct 23
New

Today's Extremes

State Highs State Lows

Community

WunderPhotos

Upload Photos

1,757,914 photos uploaded!

Nearby

Air Quality

  Air Quality AQ Index Pollutant
Yesterday Good
PM10
Yesterday Good
OZONE
Current Good
PM2.5
Current Good
OZONE
Wednesday Moderate
PM2.5
Wednesday Good
OZONE
Thursday Moderate
PM2.5
Thursday Good
OZONE

Snow Depth

Station Depth Elevation
No new snow has been reported.

Earthquake Activity

City Distance Mag. Time & Date
No recent earthquake activity has been reported nearby.
Minimum magnitude displayed is 2.5.

Coastal Water Temperatures

Place Temperature
No Stations Reporting

Nearby Weather Stations